Tuesday, March 31, 2015
03:20 UTC
  |  Log In   |  Register Free
Airport Search:

Hobart Regional Airport
(KHBR)

Hobart Regional Airport Diagram
No Airport Diagram Available

FAA data valid effective March 05, 2015 - April 30, 2015 (unless otherwise noted).

 
 
 
 
 
 
 
 
 
 
 
 
 
 

Current Aviation Weather for Hobart Regional Airport (KHBR)

The most recent METAR observation for KHBR was updated at: 0309
METAR Summary (Translated METAR)
KHBR
310253Z AUTO 15008KT 10SM CLR 13/08 A3003 RMK AO2 SLP161 T01330078 52008
KCSM
310253Z 15008KT 10SM CLR 15/07 A3004 RMK AO2 SLP162 T01500067 53006
(22.2 nm NW from KHBR)
KAXS
310255Z AUTO 15008KT 10SM CLR 16/09 A3003 RMK AO2 T01590090
(22.5 nm SW from KHBR)
TAF Summary (Translated TAF)
KHBR
301735Z 3018/3118 17010G20KT P6SM BKN250 FM310200 17008KT P6SM BKN040 OVC160 TEMPO 3109/3113 2SM BR FM311300 VRB04KT P6SM BKN040 OVC160 PROB30 3116/3118 2SM -TSRA BKN020CB OVC030
KCSM
(22.2 nm NW from KHBR)
301735Z 3018/3118 18015G25KT P6SM SCT120 BKN250 FM310600 16007KT P6SM BKN120 OVC250 FM311300 VRB03KT P6SM BKN030 BKN120 BKN250 FM311700 08015KT P6SM OVC030
  Airport Weather Conditions for KHBR

 Current Weather at HBR
56° F
Fair
Southeast winds at 9.2 mph
HBR NOAA Radar

Pressure: 30.03 in
Humidity: 70%
Wind: Southeast at 9.2 MPH (8 KT)
Dew Point: 46.0°F
Visibility: 10.00 mi


Airport Weather Forecast for KHBR

Translated METAR and TAF for KHBR
Translated METAR for KHBR (0320 UTC 31 March 2015)
found at http://aviationweather.gov/adds/metars/
 
METAR text: KHBR 310253Z AUTO 15008KT 10SM CLR 13/08 A3003 RMK AO2 SLP161 T01330078 52008
Conditions at: KHBR (HOBART , OK, US) observed 0253 UTC 31 March 2015
Temperature: 13.3°C (56°F)
Dewpoint: 7.8°C (46°F) [RH = 69%]
Pressure (altimeter): 30.03 inches Hg (1017.0 mb)
[Sea-level pressure: 1016.1 mb]
Winds: from the SSE (150 degrees) at 9 MPH (8 knots; 4.2 m/s)
Visibility: 10 or more miles (16+ km)
Ceiling: at least 12,000 feet AGL
Clouds: sky clear below 12,000 feet AGL
Weather: automated observation with no human augmentation;
there may or may not be significant weather present at this time
Translated TAF for KHBR
Forecast for: KHBR (HOBART , OK, US)
TAF Text: KHBR 302340Z 3100/3124 18010G15KT P6SM BKN250
Forecast period: 0000 to 0600 UTC 31 March 2015
Forecast type: FROM: standard forecast or significant change
Winds: from the S (180 degrees) at 12 MPH (10 knots; 5.2 m/s)
gusting to 17 MPH (15 knots; 7.8 m/s)
Visibility: 6 or more miles (10+ km)
Ceiling: 25000 feet AGL
Clouds: broken clouds at 25000 feet AGL
Weather: no significant weather forecast for this period
TAF Text: FM310600 15007KT P6SM SCT120 OVC250
Forecast period: 0600 to 1300 UTC 31 March 2015
Forecast type: FROM: standard forecast or significant change
Winds: from the SSE (150 degrees) at 8 MPH (7 knots; 3.6 m/s)
Visibility: 6 or more miles (10+ km)
Ceiling: 25000 feet AGL
Clouds: scattered clouds at 12000 feet AGL
overcast cloud deck at 25000 feet AGL
Weather: no significant weather forecast for this period
TAF Text: TEMPO 3110/3113 2SM BR OVC020
Forecast period: 1000 to 1300 UTC 31 March 2015
Forecast type: TEMPORARY: The following changes expected for less than half the time period
Visibility: 2.00 miles (3.22 km)
Ceiling: 2000 feet AGL
Clouds: overcast cloud deck at 2000 feet AGL
Weather: BR  (mist)
TAF Text: FM311300 15006KT P6SM BKN015
Forecast period: 1300 to 1600 UTC 31 March 2015
Forecast type: FROM: standard forecast or significant change
Winds: from the SSE (150 degrees) at 7 MPH (6 knots; 3.1 m/s)
Visibility: 6 or more miles (10+ km)
Ceiling: 1500 feet AGL
Clouds: broken clouds at 1500 feet AGL
Weather: no significant weather forecast for this period
TAF Text: FM311600 14015KT P6SM SCT030
Forecast period: 1600 UTC 31 March 2015 to 0000 UTC 01 April 2015
Forecast type: FROM: standard forecast or significant change
Winds: from the SE (140 degrees) at 17 MPH (15 knots; 7.8 m/s)
Visibility: 6 or more miles (10+ km)
Clouds: scattered clouds at 3000 feet AGL
Weather: no significant weather forecast for this period
TAF Text: PROB30 3118/3124 2SM TSRA BKN030CB
Forecast period: 1800 UTC 31 March 2015 to 0000 UTC 01 April 2015
Forecast type: PROBABLE: 30 percent likelihood of the following during this time
Visibility: 2.00 miles (3.22 km)
Ceiling: 3000 feet AGL
Clouds: broken clouds at 3000 feet AGL
Weather: TSRA  (rain associated with thunderstorm(s))

Find All Airport Services Find A Hotel Find A Rental Car Find A Golf Course Find A Restaurant $100 Hamburger



FBO's on the Field
FBO Company Facility Photos Services Transportation Aviation Fuel Prices: Prices include tax
Catering Weather Repair Courtesy Rental Type 100LL JetA JetA+ MOGAS 8087
 
City of Hobart

Currently rated 2.8 by 1 person
FS:Phillips 66
Last Updated: Mar-20
Login to update fuel prices
SS:
Contact City of HobartMore FBO Information
 
Add another FBO Facility Photos Catering Weather Repair Courtesy Rental Type 100LL JetA JetA+ MOGAS 8087
Services Transportation Aviation Fuel Prices: Prices include tax


model-print
model-print
model-print
model-print